sensor_id;sensor_type;location;lat;lon;timestamp;pressure;altitude;pressure_sealevel;temperature;humidity
45941;BME280;31858;46.008;8.978;2023-02-10T00:08:27;96106.94;;;-1.86;68.48
45941;BME280;31858;46.008;8.978;2023-02-10T00:18:29;96112.41;;;-1.93;69.76
45941;BME280;31858;46.008;8.978;2023-02-10T00:28:34;96106.63;;;-2.00;69.07
45941;BME280;31858;46.008;8.978;2023-02-10T00:38:36;96103.47;;;-2.02;69.25
45941;BME280;31858;46.008;8.978;2023-02-10T00:48:40;96111.78;;;-2.10;68.20
45941;BME280;31858;46.008;8.978;2023-02-10T00:58:41;96103.38;;;-2.17;68.13
45941;BME280;31858;46.008;8.978;2023-02-10T01:08:44;96089.84;;;-2.09;66.08
45941;BME280;31858;46.008;8.978;2023-02-10T01:18:46;96083.53;;;-2.18;67.21
45941;BME280;31858;46.008;8.978;2023-02-10T01:28:49;96087.50;;;-2.11;66.94
45941;BME280;31858;46.008;8.978;2023-02-10T01:38:51;96083.53;;;-2.18;66.18
45941;BME280;31858;46.008;8.978;2023-02-10T01:48:55;96068.53;;;-2.38;67.93
45941;BME280;31858;46.008;8.978;2023-02-10T01:58:58;96069.13;;;-2.26;67.00
45941;BME280;31858;46.008;8.978;2023-02-10T02:09:02;96051.84;;;-2.32;65.87
45941;BME280;31858;46.008;8.978;2023-02-10T02:19:17;96047.66;;;-2.38;66.39
45941;BME280;31858;46.008;8.978;2023-02-10T02:29:37;96025.91;;;-2.49;66.69
45941;BME280;31858;46.008;8.978;2023-02-10T02:39:48;96023.13;;;-2.37;65.61
45941;BME280;31858;46.008;8.978;2023-02-10T02:49:56;96020.44;;;-2.47;66.53
45941;BME280;31858;46.008;8.978;2023-02-10T03:00:04;96018.78;;;-2.16;64.74
45941;BME280;31858;46.008;8.978;2023-02-10T03:10:08;96009.00;;;-2.41;65.23
45941;BME280;31858;46.008;8.978;2023-02-10T03:20:11;95995.59;;;-2.55;64.87
45941;BME280;31858;46.008;8.978;2023-02-10T03:30:12;95981.25;;;-2.52;63.89
45941;BME280;31858;46.008;8.978;2023-02-10T03:40:16;95979.28;;;-2.35;63.89
45941;BME280;31858;46.008;8.978;2023-02-10T03:50:17;95973.03;;;-2.29;63.63
45941;BME280;31858;46.008;8.978;2023-02-10T04:00:20;95978.47;;;-2.36;63.71
45941;BME280;31858;46.008;8.978;2023-02-10T04:10:22;95972.94;;;-2.49;63.82
45941;BME280;31858;46.008;8.978;2023-02-10T04:20:25;95976.81;;;-2.57;63.64
45941;BME280;31858;46.008;8.978;2023-02-10T04:30:27;95969.03;;;-2.47;59.67
45941;BME280;31858;46.008;8.978;2023-02-10T04:40:30;95961.91;;;-2.67;62.99
45941;BME280;31858;46.008;8.978;2023-02-10T04:50:32;95972.09;;;-2.65;65.03
45941;BME280;31858;46.008;8.978;2023-02-10T05:00:35;95975.34;;;-2.38;59.83
45941;BME280;31858;46.008;8.978;2023-02-10T05:10:36;95987.50;;;-2.64;62.75
45941;BME280;31858;46.008;8.978;2023-02-10T05:20:39;95988.69;;;-2.29;58.82
45941;BME280;31858;46.008;8.978;2023-02-10T05:30:41;95987.28;;;-2.52;58.98
45941;BME280;31858;46.008;8.978;2023-02-10T05:40:44;95991.41;;;-2.56;60.43
45941;BME280;31858;46.008;8.978;2023-02-10T05:50:49;96006.72;;;-2.75;60.53
45941;BME280;31858;46.008;8.978;2023-02-10T06:00:53;96010.19;;;-2.59;59.03
45941;BME280;31858;46.008;8.978;2023-02-10T06:10:55;96016.19;;;-2.64;58.60
45941;BME280;31858;46.008;8.978;2023-02-10T06:20:58;96025.78;;;-2.74;59.08
45941;BME280;31858;46.008;8.978;2023-02-10T06:30:59;96037.03;;;-2.69;60.35
45941;BME280;31858;46.008;8.978;2023-02-10T06:41:02;96032.25;;;-2.82;61.91
45941;BME280;31858;46.008;8.978;2023-02-10T06:51:04;96052.13;;;-2.76;61.57
45941;BME280;31858;46.008;8.978;2023-02-10T07:01:08;96060.81;;;-2.65;60.70
45941;BME280;31858;46.008;8.978;2023-02-10T07:11:10;96066.56;;;-2.95;62.81
45941;BME280;31858;46.008;8.978;2023-02-10T07:21:13;96076.84;;;-2.83;64.94
45941;BME280;31858;46.008;8.978;2023-02-10T07:31:15;96074.28;;;-2.78;65.78
45941;BME280;31858;46.008;8.978;2023-02-10T07:41:18;96095.88;;;-2.83;66.47
45941;BME280;31858;46.008;8.978;2023-02-10T07:51:19;96101.72;;;-2.71;65.67
45941;BME280;31858;46.008;8.978;2023-02-10T08:01:23;96108.28;;;-2.68;64.83
45941;BME280;31858;46.008;8.978;2023-02-10T08:11:24;96105.59;;;-2.78;67.10
45941;BME280;31858;46.008;8.978;2023-02-10T08:21:27;96110.78;;;-2.78;68.29
45941;BME280;31858;46.008;8.978;2023-02-10T08:31:29;96107.50;;;-2.69;70.28
45941;BME280;31858;46.008;8.978;2023-02-10T08:41:32;96124.22;;;-2.65;78.92
45941;BME280;31858;46.008;8.978;2023-02-10T08:51:33;96131.56;;;-2.61;80.72
45941;BME280;31858;46.008;8.978;2023-02-10T09:01:36;96141.78;;;-2.50;81.53
45941;BME280;31858;46.008;8.978;2023-02-10T09:11:40;96143.78;;;-2.30;96.66
45941;BME280;31858;46.008;8.978;2023-02-10T09:21:43;96152.47;;;-2.19;100.00
45941;BME280;31858;46.008;8.978;2023-02-10T09:31:44;96159.66;;;-2.00;84.30
45941;BME280;31858;46.008;8.978;2023-02-10T09:41:54;96154.59;;;-1.69;71.39
45941;BME280;31858;46.008;8.978;2023-02-10T09:52:02;96163.84;;;-1.46;70.19
45941;BME280;31858;46.008;8.978;2023-02-10T10:02:14;96178.81;;;-1.26;70.04
45941;BME280;31858;46.008;8.978;2023-02-10T10:12:18;96179.47;;;-0.84;67.89
45941;BME280;31858;46.008;8.978;2023-02-10T10:22:31;96190.25;;;-0.55;75.47
45941;BME280;31858;46.008;8.978;2023-02-10T10:32:43;96193.69;;;-0.29;77.37
45941;BME280;31858;46.008;8.978;2023-02-10T10:42:49;96195.25;;;-0.03;73.06
45941;BME280;31858;46.008;8.978;2023-02-10T10:52:54;96191.19;;;0.51;64.65
45941;BME280;31858;46.008;8.978;2023-02-10T11:03:00;96180.59;;;0.86;57.64
45941;BME280;31858;46.008;8.978;2023-02-10T11:13:02;96182.81;;;1.18;58.15
45941;BME280;31858;46.008;8.978;2023-02-10T11:23:13;96180.69;;;1.59;56.57
45941;BME280;31858;46.008;8.978;2023-02-10T11:33:19;96178.78;;;1.65;51.90
45941;BME280;31858;46.008;8.978;2023-02-10T11:43:29;96188.28;;;1.61;51.14
45941;BME280;31858;46.008;8.978;2023-02-10T11:53:34;96174.78;;;2.07;52.53
45941;BME280;31858;46.008;8.978;2023-02-10T12:03:52;96168.00;;;2.29;50.61
45941;BME280;31858;46.008;8.978;2023-02-10T12:14:01;96156.13;;;2.56;51.15
45941;BME280;31858;46.008;8.978;2023-02-10T12:24:16;96164.81;;;2.99;47.41
45941;BME280;31858;46.008;8.978;2023-02-10T12:45:12;96136.88;;;3.73;47.44
45941;BME280;31858;46.008;8.978;2023-02-10T12:55:18;96126.75;;;3.94;48.06
45941;BME280;31858;46.008;8.978;2023-02-10T13:05:27;96124.38;;;4.25;45.68
45941;BME280;31858;46.008;8.978;2023-02-10T13:15:33;96111.28;;;4.34;45.00
45941;BME280;31858;46.008;8.978;2023-02-10T13:25:49;96103.66;;;4.59;44.65
45941;BME280;31858;46.008;8.978;2023-02-10T13:35:52;96103.72;;;4.96;44.12
45941;BME280;31858;46.008;8.978;2023-02-10T13:45:56;96091.66;;;5.25;42.75
45941;BME280;31858;46.008;8.978;2023-02-10T13:56:09;96088.91;;;5.31;42.40
45941;BME280;31858;46.008;8.978;2023-02-10T14:06:13;96079.19;;;5.40;40.56
45941;BME280;31858;46.008;8.978;2023-02-10T14:16:29;96078.47;;;5.70;41.45
45941;BME280;31858;46.008;8.978;2023-02-10T14:26:34;96086.22;;;5.67;41.09
45941;BME280;31858;46.008;8.978;2023-02-10T14:36:36;96084.34;;;5.67;41.70
45941;BME280;31858;46.008;8.978;2023-02-10T14:46:39;96085.78;;;5.73;40.91
45941;BME280;31858;46.008;8.978;2023-02-10T14:56:49;96080.06;;;5.80;41.25
45941;BME280;31858;46.008;8.978;2023-02-10T15:06:55;96070.81;;;5.69;41.66
45941;BME280;31858;46.008;8.978;2023-02-10T15:16:58;96062.41;;;5.67;41.33
45941;BME280;31858;46.008;8.978;2023-02-10T15:27:13;96063.31;;;5.62;40.98
45941;BME280;31858;46.008;8.978;2023-02-10T15:37:18;96065.66;;;5.64;39.87
45941;BME280;31858;46.008;8.978;2023-02-10T15:47:24;96076.31;;;5.50;39.77
45941;BME280;31858;46.008;8.978;2023-02-10T15:57:26;96069.75;;;5.25;39.98
45941;BME280;31858;46.008;8.978;2023-02-10T16:07:29;96074.13;;;5.07;41.42
45941;BME280;31858;46.008;8.978;2023-02-10T16:17:37;96075.56;;;4.77;42.25
45941;BME280;31858;46.008;8.978;2023-02-10T16:27:41;96081.19;;;4.48;42.97
45941;BME280;31858;46.008;8.978;2023-02-10T16:37:43;96090.47;;;4.32;43.08
45941;BME280;31858;46.008;8.978;2023-02-10T16:47:46;96101.47;;;4.07;44.63
45941;BME280;31858;46.008;8.978;2023-02-10T16:57:48;96114.84;;;3.83;45.33
45941;BME280;31858;46.008;8.978;2023-02-10T17:07:51;96120.28;;;3.73;44.99
45941;BME280;31858;46.008;8.978;2023-02-10T17:17:53;96133.44;;;3.40;46.38
45941;BME280;31858;46.008;8.978;2023-02-10T17:27:56;96135.56;;;3.38;46.01
45941;BME280;31858;46.008;8.978;2023-02-10T17:37:58;96143.13;;;3.26;46.78
45941;BME280;31858;46.008;8.978;2023-02-10T17:48:15;96147.75;;;3.15;46.95
45941;BME280;31858;46.008;8.978;2023-02-10T17:58:16;96139.25;;;3.00;46.51
45941;BME280;31858;46.008;8.978;2023-02-10T18:08:19;96146.63;;;2.60;48.71
45941;BME280;31858;46.008;8.978;2023-02-10T18:18:21;96149.09;;;2.51;49.63
45941;BME280;31858;46.008;8.978;2023-02-10T18:28:24;96144.81;;;2.32;50.62
45941;BME280;31858;46.008;8.978;2023-02-10T18:38:26;96148.38;;;2.17;51.38
45941;BME280;31858;46.008;8.978;2023-02-10T18:48:29;96156.97;;;1.99;51.82
45941;BME280;31858;46.008;8.978;2023-02-10T18:58:31;96153.84;;;1.96;52.19
45941;BME280;31858;46.008;8.978;2023-02-10T19:08:34;96153.94;;;1.86;52.78
45941;BME280;31858;46.008;8.978;2023-02-10T19:18:36;96162.72;;;1.72;53.17
45941;BME280;31858;46.008;8.978;2023-02-10T19:28:39;96174.31;;;1.66;53.98
45941;BME280;31858;46.008;8.978;2023-02-10T19:38:42;96186.44;;;1.61;54.24
45941;BME280;31858;46.008;8.978;2023-02-10T19:48:46;96189.47;;;1.40;55.63
45941;BME280;31858;46.008;8.978;2023-02-10T19:58:47;96211.78;;;1.42;54.45
45941;BME280;31858;46.008;8.978;2023-02-10T20:08:51;96206.91;;;1.25;55.53
45941;BME280;31858;46.008;8.978;2023-02-10T20:18:53;96208.03;;;1.14;56.04
45941;BME280;31858;46.008;8.978;2023-02-10T20:28:56;96210.16;;;1.07;56.19
45941;BME280;31858;46.008;8.978;2023-02-10T20:38:59;96216.97;;;1.08;56.98
45941;BME280;31858;46.008;8.978;2023-02-10T20:49:04;96220.66;;;1.07;56.40
45941;BME280;31858;46.008;8.978;2023-02-10T20:59:06;96211.47;;;1.05;56.13
45941;BME280;31858;46.008;8.978;2023-02-10T21:09:08;96228.28;;;1.04;56.22
45941;BME280;31858;46.008;8.978;2023-02-10T21:19:10;96237.47;;;1.06;55.36
45941;BME280;31858;46.008;8.978;2023-02-10T21:29:13;96230.69;;;0.90;56.01
45941;BME280;31858;46.008;8.978;2023-02-10T21:39:15;96241.97;;;0.90;56.13
45941;BME280;31858;46.008;8.978;2023-02-10T21:49:21;96245.09;;;1.03;55.82
45941;BME280;31858;46.008;8.978;2023-02-10T21:59:22;96234.38;;;0.89;55.67
45941;BME280;31858;46.008;8.978;2023-02-10T22:09:25;96245.97;;;0.78;54.87
45941;BME280;31858;46.008;8.978;2023-02-10T22:19:27;96246.50;;;0.70;56.12
45941;BME280;31858;46.008;8.978;2023-02-10T22:29:30;96249.88;;;0.80;55.45
45941;BME280;31858;46.008;8.978;2023-02-10T22:39:31;96255.38;;;0.84;54.89
45941;BME280;31858;46.008;8.978;2023-02-10T22:49:34;96253.28;;;0.81;55.64
45941;BME280;31858;46.008;8.978;2023-02-10T22:59:37;96255.41;;;0.79;53.95
45941;BME280;31858;46.008;8.978;2023-02-10T23:09:39;96251.19;;;0.88;54.82
45941;BME280;31858;46.008;8.978;2023-02-10T23:19:41;96252.75;;;0.84;55.74
45941;BME280;31858;46.008;8.978;2023-02-10T23:29:44;96250.94;;;0.79;55.42
45941;BME280;31858;46.008;8.978;2023-02-10T23:39:47;96252.78;;;0.79;53.73
45941;BME280;31858;46.008;8.978;2023-02-10T23:49:52;96244.16;;;0.68;53.06
45941;BME280;31858;46.008;8.978;2023-02-10T23:59:53;96239.19;;;0.56;53.76
